sensor_id;sensor_type;location;lat;lon;timestamp;P1;durP1;ratioP1;P2;durP2;ratioP2
18336;SDS011;9294;51.106;7.028;2022-08-04T00:02:21;1.83;;;1.83;;
18336;SDS011;9294;51.106;7.028;2022-08-04T00:04:52;2.10;;;2.00;;
18336;SDS011;9294;51.106;7.028;2022-08-04T00:07:25;1.73;;;1.73;;
18336;SDS011;9294;51.106;7.028;2022-08-04T00:09:58;2.00;;;2.00;;
18336;SDS011;9294;51.106;7.028;2022-08-04T00:12:27;1.63;;;1.63;;
18336;SDS011;9294;51.106;7.028;2022-08-04T00:14:57;2.20;;;2.10;;
18336;SDS011;9294;51.106;7.028;2022-08-04T00:17:28;2.40;;;1.92;;
18336;SDS011;9294;51.106;7.028;2022-08-04T00:19:58;2.22;;;2.13;;
18336;SDS011;9294;51.106;7.028;2022-08-04T00:22:27;2.47;;;2.38;;
18336;SDS011;9294;51.106;7.028;2022-08-04T00:24:55;2.20;;;2.17;;
18336;SDS011;9294;51.106;7.028;2022-08-04T00:27:22;2.22;;;2.13;;
18336;SDS011;9294;51.106;7.028;2022-08-04T00:29:49;2.40;;;2.22;;
18336;SDS011;9294;51.106;7.028;2022-08-04T00:32:16;1.95;;;1.85;;
18336;SDS011;9294;51.106;7.028;2022-08-04T00:34:45;1.80;;;1.80;;
18336;SDS011;9294;51.106;7.028;2022-08-04T00:37:13;1.80;;;1.80;;
18336;SDS011;9294;51.106;7.028;2022-08-04T00:39:40;1.85;;;1.85;;
18336;SDS011;9294;51.106;7.028;2022-08-04T00:45:02;2.08;;;1.90;;
18336;SDS011;9294;51.106;7.028;2022-08-04T00:47:55;2.20;;;2.10;;
18336;SDS011;9294;51.106;7.028;2022-08-04T00:50:33;2.45;;;2.35;;
18336;SDS011;9294;51.106;7.028;2022-08-04T00:53:12;2.22;;;2.10;;
18336;SDS011;9294;51.106;7.028;2022-08-04T00:55:51;2.10;;;2.08;;
18336;SDS011;9294;51.106;7.028;2022-08-04T00:58:26;2.38;;;2.28;;
18336;SDS011;9294;51.106;7.028;2022-08-04T01:00:57;1.90;;;1.90;;
18336;SDS011;9294;51.106;7.028;2022-08-04T01:03:31;5.05;;;2.05;;
18336;SDS011;9294;51.106;7.028;2022-08-04T01:06:02;1.92;;;1.92;;
18336;SDS011;9294;51.106;7.028;2022-08-04T01:08:44;1.85;;;1.77;;
18336;SDS011;9294;51.106;7.028;2022-08-04T01:11:22;2.47;;;2.38;;
18336;SDS011;9294;51.106;7.028;2022-08-04T01:17:00;2.08;;;1.92;;
18336;SDS011;9294;51.106;7.028;2022-08-04T01:19:58;2.35;;;2.22;;
18336;SDS011;9294;51.106;7.028;2022-08-04T01:25:45;2.28;;;2.10;;
18336;SDS011;9294;51.106;7.028;2022-08-04T01:28:22;2.80;;;2.13;;
18336;SDS011;9294;51.106;7.028;2022-08-04T01:30:57;1.88;;;1.88;;
18336;SDS011;9294;51.106;7.028;2022-08-04T01:33:32;2.38;;;2.28;;
18336;SDS011;9294;51.106;7.028;2022-08-04T01:36:03;1.73;;;1.73;;
18336;SDS011;9294;51.106;7.028;2022-08-04T01:38:32;2.15;;;2.05;;
18336;SDS011;9294;51.106;7.028;2022-08-04T01:41:02;2.10;;;2.10;;
18336;SDS011;9294;51.106;7.028;2022-08-04T01:43:31;2.20;;;2.10;;
18336;SDS011;9294;51.106;7.028;2022-08-04T01:46:01;2.28;;;2.17;;
18336;SDS011;9294;51.106;7.028;2022-08-04T01:48:29;1.85;;;1.85;;
18336;SDS011;9294;51.106;7.028;2022-08-04T01:50:57;2.08;;;2.05;;
18336;SDS011;9294;51.106;7.028;2022-08-04T01:53:28;1.58;;;1.58;;
18336;SDS011;9294;51.106;7.028;2022-08-04T01:55:56;2.00;;;1.90;;
18336;SDS011;9294;51.106;7.028;2022-08-04T01:58:23;2.05;;;1.95;;
18336;SDS011;9294;51.106;7.028;2022-08-04T02:00:57;2.58;;;2.38;;
18336;SDS011;9294;51.106;7.028;2022-08-04T02:03:27;2.38;;;2.28;;
18336;SDS011;9294;51.106;7.028;2022-08-04T02:05:57;1.60;;;1.60;;
18336;SDS011;9294;51.106;7.028;2022-08-04T02:08:29;2.15;;;2.05;;
18336;SDS011;9294;51.106;7.028;2022-08-04T02:11:07;1.95;;;1.85;;
18336;SDS011;9294;51.106;7.028;2022-08-04T02:13:44;1.92;;;1.92;;
18336;SDS011;9294;51.106;7.028;2022-08-04T02:16:15;2.00;;;2.00;;
18336;SDS011;9294;51.106;7.028;2022-08-04T02:18:56;1.88;;;1.88;;
18336;SDS011;9294;51.106;7.028;2022-08-04T02:21:28;1.90;;;1.80;;
18336;SDS011;9294;51.106;7.028;2022-08-04T02:23:57;1.80;;;1.80;;
18336;SDS011;9294;51.106;7.028;2022-08-04T02:26:27;2.00;;;2.00;;
18336;SDS011;9294;51.106;7.028;2022-08-04T02:28:57;1.70;;;1.70;;
18336;SDS011;9294;51.106;7.028;2022-08-04T02:31:36;1.75;;;1.75;;
18336;SDS011;9294;51.106;7.028;2022-08-04T02:34:11;1.83;;;1.83;;
18336;SDS011;9294;51.106;7.028;2022-08-04T02:36:42;1.98;;;1.88;;
18336;SDS011;9294;51.106;7.028;2022-08-04T02:39:10;2.08;;;2.08;;
18336;SDS011;9294;51.106;7.028;2022-08-04T02:41:39;1.65;;;1.65;;
18336;SDS011;9294;51.106;7.028;2022-08-04T02:44:07;2.10;;;2.00;;
18336;SDS011;9294;51.106;7.028;2022-08-04T02:46:34;2.30;;;2.20;;
18336;SDS011;9294;51.106;7.028;2022-08-04T02:49:03;1.92;;;1.88;;
18336;SDS011;9294;51.106;7.028;2022-08-04T02:51:32;1.85;;;1.75;;
18336;SDS011;9294;51.106;7.028;2022-08-04T02:54:01;2.03;;;2.03;;
18336;SDS011;9294;51.106;7.028;2022-08-04T02:56:29;2.33;;;2.10;;
18336;SDS011;9294;51.106;7.028;2022-08-04T02:58:57;1.80;;;1.70;;
18336;SDS011;9294;51.106;7.028;2022-08-04T03:01:25;1.92;;;1.92;;
18336;SDS011;9294;51.106;7.028;2022-08-04T03:03:55;2.13;;;2.08;;
18336;SDS011;9294;51.106;7.028;2022-08-04T03:12:55;2.25;;;2.15;;
18336;SDS011;9294;51.106;7.028;2022-08-04T03:15:47;1.98;;;1.98;;
18336;SDS011;9294;51.106;7.028;2022-08-04T03:18:35;2.20;;;2.10;;
18336;SDS011;9294;51.106;7.028;2022-08-04T03:24:10;2.03;;;1.92;;
18336;SDS011;9294;51.106;7.028;2022-08-04T03:27:03;2.03;;;1.92;;
18336;SDS011;9294;51.106;7.028;2022-08-04T03:38:27;1.95;;;1.85;;
18336;SDS011;9294;51.106;7.028;2022-08-04T03:41:26;2.20;;;2.10;;
18336;SDS011;9294;51.106;7.028;2022-08-04T03:44:19;1.83;;;1.83;;
18336;SDS011;9294;51.106;7.028;2022-08-04T03:55:46;2.40;;;2.30;;
18336;SDS011;9294;51.106;7.028;2022-08-04T04:01:27;2.10;;;2.05;;
18336;SDS011;9294;51.106;7.028;2022-08-04T04:04:18;1.77;;;1.77;;
18336;SDS011;9294;51.106;7.028;2022-08-04T04:06:58;2.00;;;2.00;;
18336;SDS011;9294;51.106;7.028;2022-08-04T04:15:50;1.73;;;1.73;;
18336;SDS011;9294;51.106;7.028;2022-08-04T04:18:46;2.08;;;1.98;;
18336;SDS011;9294;51.106;7.028;2022-08-04T04:21:26;1.90;;;1.90;;
18336;SDS011;9294;51.106;7.028;2022-08-04T04:24:02;1.70;;;1.70;;
18336;SDS011;9294;51.106;7.028;2022-08-04T04:26:37;1.90;;;1.80;;
18336;SDS011;9294;51.106;7.028;2022-08-04T04:32:16;2.22;;;2.13;;
18336;SDS011;9294;51.106;7.028;2022-08-04T04:34:49;2.20;;;2.20;;
18336;SDS011;9294;51.106;7.028;2022-08-04T04:37:19;2.05;;;1.92;;
18336;SDS011;9294;51.106;7.028;2022-08-04T04:40:06;2.05;;;1.95;;
18336;SDS011;9294;51.106;7.028;2022-08-04T04:42:53;1.85;;;1.85;;
18336;SDS011;9294;51.106;7.028;2022-08-04T04:45:35;1.63;;;1.63;;
18336;SDS011;9294;51.106;7.028;2022-08-04T04:48:08;2.03;;;1.92;;
18336;SDS011;9294;51.106;7.028;2022-08-04T04:50:46;1.77;;;1.77;;
18336;SDS011;9294;51.106;7.028;2022-08-04T04:53:16;1.88;;;1.88;;
18336;SDS011;9294;51.106;7.028;2022-08-04T04:55:52;2.00;;;1.90;;
18336;SDS011;9294;51.106;7.028;2022-08-04T04:58:28;2.10;;;2.00;;
18336;SDS011;9294;51.106;7.028;2022-08-04T05:01:06;2.15;;;2.08;;
18336;SDS011;9294;51.106;7.028;2022-08-04T05:03:48;1.90;;;1.90;;
18336;SDS011;9294;51.106;7.028;2022-08-04T05:06:35;2.10;;;2.10;;
18336;SDS011;9294;51.106;7.028;2022-08-04T05:09:17;2.13;;;2.03;;
18336;SDS011;9294;51.106;7.028;2022-08-04T05:14:59;1.90;;;1.83;;
18336;SDS011;9294;51.106;7.028;2022-08-04T05:17:29;2.25;;;2.15;;
18336;SDS011;9294;51.106;7.028;2022-08-04T05:20:02;1.95;;;1.88;;
18336;SDS011;9294;51.106;7.028;2022-08-04T05:22:34;2.10;;;2.00;;
18336;SDS011;9294;51.106;7.028;2022-08-04T05:25:04;2.10;;;2.00;;
18336;SDS011;9294;51.106;7.028;2022-08-04T05:27:36;2.15;;;2.10;;
18336;SDS011;9294;51.106;7.028;2022-08-04T05:30:06;1.90;;;1.80;;
18336;SDS011;9294;51.106;7.028;2022-08-04T05:32:37;2.80;;;2.65;;
18336;SDS011;9294;51.106;7.028;2022-08-04T05:35:11;2.60;;;2.50;;
18336;SDS011;9294;51.106;7.028;2022-08-04T05:37:41;2.85;;;2.75;;
18336;SDS011;9294;51.106;7.028;2022-08-04T05:40:10;2.90;;;2.80;;
18336;SDS011;9294;51.106;7.028;2022-08-04T05:42:40;2.80;;;2.70;;
18336;SDS011;9294;51.106;7.028;2022-08-04T05:45:07;3.33;;;3.15;;
18336;SDS011;9294;51.106;7.028;2022-08-04T05:47:35;3.10;;;3.00;;
18336;SDS011;9294;51.106;7.028;2022-08-04T05:50:03;3.60;;;3.30;;
18336;SDS011;9294;51.106;7.028;2022-08-04T05:52:32;3.67;;;3.30;;
18336;SDS011;9294;51.106;7.028;2022-08-04T05:55:00;4.75;;;2.90;;
18336;SDS011;9294;51.106;7.028;2022-08-04T05:57:28;3.58;;;3.28;;
18336;SDS011;9294;51.106;7.028;2022-08-04T05:59:57;3.90;;;3.05;;
18336;SDS011;9294;51.106;7.028;2022-08-04T06:02:26;3.63;;;3.42;;
18336;SDS011;9294;51.106;7.028;2022-08-04T06:04:55;3.08;;;2.97;;
18336;SDS011;9294;51.106;7.028;2022-08-04T06:07:24;3.03;;;2.90;;
18336;SDS011;9294;51.106;7.028;2022-08-04T06:09:51;3.35;;;3.13;;
18336;SDS011;9294;51.106;7.028;2022-08-04T06:12:19;3.30;;;3.15;;
18336;SDS011;9294;51.106;7.028;2022-08-04T06:14:47;5.45;;;2.95;;
18336;SDS011;9294;51.106;7.028;2022-08-04T06:17:20;3.97;;;3.20;;
18336;SDS011;9294;51.106;7.028;2022-08-04T06:19:48;3.25;;;3.05;;
18336;SDS011;9294;51.106;7.028;2022-08-04T06:22:18;2.92;;;2.83;;
18336;SDS011;9294;51.106;7.028;2022-08-04T06:24:46;2.60;;;2.50;;
18336;SDS011;9294;51.106;7.028;2022-08-04T06:27:16;3.20;;;3.00;;
18336;SDS011;9294;51.106;7.028;2022-08-04T06:29:44;3.60;;;3.40;;
18336;SDS011;9294;51.106;7.028;2022-08-04T06:32:12;3.78;;;3.10;;
18336;SDS011;9294;51.106;7.028;2022-08-04T06:34:53;3.70;;;3.50;;
18336;SDS011;9294;51.106;7.028;2022-08-04T06:37:20;3.95;;;2.90;;
18336;SDS011;9294;51.106;7.028;2022-08-04T06:39:48;3.28;;;3.08;;
18336;SDS011;9294;51.106;7.028;2022-08-04T06:42:16;2.85;;;2.75;;
18336;SDS011;9294;51.106;7.028;2022-08-04T06:44:44;4.95;;;2.88;;
18336;SDS011;9294;51.106;7.028;2022-08-04T06:47:14;2.88;;;2.78;;
18336;SDS011;9294;51.106;7.028;2022-08-04T06:49:43;3.33;;;3.00;;
18336;SDS011;9294;51.106;7.028;2022-08-04T06:52:12;3.28;;;3.08;;
18336;SDS011;9294;51.106;7.028;2022-08-04T06:54:42;3.47;;;3.15;;
18336;SDS011;9294;51.106;7.028;2022-08-04T06:57:09;8.18;;;3.17;;
18336;SDS011;9294;51.106;7.028;2022-08-04T06:59:39;3.20;;;3.00;;
18336;SDS011;9294;51.106;7.028;2022-08-04T07:02:06;3.90;;;3.28;;
18336;SDS011;9294;51.106;7.028;2022-08-04T07:04:39;3.63;;;2.83;;
18336;SDS011;9294;51.106;7.028;2022-08-04T07:07:06;4.72;;;3.10;;
18336;SDS011;9294;51.106;7.028;2022-08-04T07:09:34;5.28;;;3.22;;
18336;SDS011;9294;51.106;7.028;2022-08-04T07:12:01;5.47;;;4.10;;
18336;SDS011;9294;51.106;7.028;2022-08-04T07:14:29;4.53;;;3.50;;
18336;SDS011;9294;51.106;7.028;2022-08-04T07:16:57;2.75;;;2.65;;
18336;SDS011;9294;51.106;7.028;2022-08-04T07:19:24;3.30;;;3.17;;
18336;SDS011;9294;51.106;7.028;2022-08-04T07:21:51;3.13;;;3.03;;
18336;SDS011;9294;51.106;7.028;2022-08-04T07:24:18;3.40;;;3.22;;
18336;SDS011;9294;51.106;7.028;2022-08-04T07:26:49;8.82;;;3.53;;
18336;SDS011;9294;51.106;7.028;2022-08-04T07:29:16;3.15;;;3.05;;
18336;SDS011;9294;51.106;7.028;2022-08-04T07:31:43;3.40;;;3.20;;
18336;SDS011;9294;51.106;7.028;2022-08-04T07:34:12;3.30;;;3.20;;
18336;SDS011;9294;51.106;7.028;2022-08-04T07:36:39;4.10;;;3.85;;
18336;SDS011;9294;51.106;7.028;2022-08-04T07:39:06;3.63;;;3.40;;
18336;SDS011;9294;51.106;7.028;2022-08-04T07:41:33;3.40;;;3.15;;
18336;SDS011;9294;51.106;7.028;2022-08-04T07:44:02;3.88;;;3.53;;
18336;SDS011;9294;51.106;7.028;2022-08-04T07:46:30;4.00;;;3.70;;
18336;SDS011;9294;51.106;7.028;2022-08-04T07:48:58;4.60;;;4.20;;
18336;SDS011;9294;51.106;7.028;2022-08-04T07:51:25;3.53;;;3.22;;
18336;SDS011;9294;51.106;7.028;2022-08-04T07:53:52;3.95;;;3.65;;
18336;SDS011;9294;51.106;7.028;2022-08-04T07:56:20;5.18;;;4.15;;
18336;SDS011;9294;51.106;7.028;2022-08-04T07:58:47;4.28;;;3.97;;
18336;SDS011;9294;51.106;7.028;2022-08-04T08:01:15;3.58;;;3.38;;
18336;SDS011;9294;51.106;7.028;2022-08-04T08:03:43;3.80;;;3.50;;
18336;SDS011;9294;51.106;7.028;2022-08-04T08:06:11;4.55;;;4.22;;
18336;SDS011;9294;51.106;7.028;2022-08-04T08:08:38;3.72;;;3.42;;
18336;SDS011;9294;51.106;7.028;2022-08-04T08:11:05;3.63;;;3.45;;
18336;SDS011;9294;51.106;7.028;2022-08-04T08:13:33;4.63;;;4.43;;
18336;SDS011;9294;51.106;7.028;2022-08-04T08:16:01;4.80;;;4.00;;
18336;SDS011;9294;51.106;7.028;2022-08-04T08:18:30;4.25;;;3.90;;
18336;SDS011;9294;51.106;7.028;2022-08-04T08:20:57;4.38;;;4.18;;
18336;SDS011;9294;51.106;7.028;2022-08-04T08:23:24;4.15;;;3.90;;
18336;SDS011;9294;51.106;7.028;2022-08-04T08:25:52;4.10;;;3.80;;
18336;SDS011;9294;51.106;7.028;2022-08-04T08:28:19;3.78;;;3.58;;
18336;SDS011;9294;51.106;7.028;2022-08-04T08:30:46;4.07;;;3.50;;
18336;SDS011;9294;51.106;7.028;2022-08-04T08:33:13;3.55;;;3.35;;
18336;SDS011;9294;51.106;7.028;2022-08-04T08:35:45;4.60;;;3.67;;
18336;SDS011;9294;51.106;7.028;2022-08-04T08:38:15;3.22;;;3.13;;
18336;SDS011;9294;51.106;7.028;2022-08-04T08:40:47;4.00;;;3.70;;
18336;SDS011;9294;51.106;7.028;2022-08-04T08:43:31;4.22;;;3.78;;
18336;SDS011;9294;51.106;7.028;2022-08-04T08:46:14;3.70;;;3.50;;
18336;SDS011;9294;51.106;7.028;2022-08-04T08:48:59;3.60;;;3.40;;
18336;SDS011;9294;51.106;7.028;2022-08-04T08:54:41;4.03;;;3.75;;
18336;SDS011;9294;51.106;7.028;2022-08-04T08:57:24;6.55;;;4.00;;
18336;SDS011;9294;51.106;7.028;2022-08-04T09:00:22;5.22;;;3.58;;
18336;SDS011;9294;51.106;7.028;2022-08-04T09:03:09;3.28;;;3.17;;
18336;SDS011;9294;51.106;7.028;2022-08-04T09:05:50;3.83;;;3.60;;
18336;SDS011;9294;51.106;7.028;2022-08-04T09:08:40;3.67;;;3.38;;
18336;SDS011;9294;51.106;7.028;2022-08-04T09:11:21;3.05;;;2.95;;
18336;SDS011;9294;51.106;7.028;2022-08-04T09:13:51;3.30;;;3.20;;
18336;SDS011;9294;51.106;7.028;2022-08-04T09:16:23;3.30;;;3.20;;
18336;SDS011;9294;51.106;7.028;2022-08-04T09:19:01;3.45;;;3.35;;
18336;SDS011;9294;51.106;7.028;2022-08-04T09:21:47;3.97;;;3.65;;
18336;SDS011;9294;51.106;7.028;2022-08-04T09:24:21;3.63;;;3.42;;
18336;SDS011;9294;51.106;7.028;2022-08-04T09:26:55;4.00;;;3.70;;
18336;SDS011;9294;51.106;7.028;2022-08-04T09:29:26;3.47;;;3.05;;
18336;SDS011;9294;51.106;7.028;2022-08-04T09:32:03;3.38;;;3.17;;
18336;SDS011;9294;51.106;7.028;2022-08-04T09:34:38;3.40;;;3.13;;
18336;SDS011;9294;51.106;7.028;2022-08-04T09:37:14;4.10;;;3.85;;
18336;SDS011;9294;51.106;7.028;2022-08-04T09:39:52;3.40;;;3.25;;
18336;SDS011;9294;51.106;7.028;2022-08-04T09:42:27;3.47;;;3.28;;
18336;SDS011;9294;51.106;7.028;2022-08-04T09:45:05;3.63;;;3.30;;
18336;SDS011;9294;51.106;7.028;2022-08-04T09:47:38;3.22;;;3.13;;
18336;SDS011;9294;51.106;7.028;2022-08-04T09:50:14;4.35;;;3.75;;
18336;SDS011;9294;51.106;7.028;2022-08-04T09:52:45;3.33;;;3.17;;
18336;SDS011;9294;51.106;7.028;2022-08-04T09:55:17;4.07;;;3.70;;
18336;SDS011;9294;51.106;7.028;2022-08-04T09:57:56;3.60;;;3.30;;
18336;SDS011;9294;51.106;7.028;2022-08-04T10:00:32;3.22;;;3.08;;
18336;SDS011;9294;51.106;7.028;2022-08-04T10:03:00;4.07;;;3.60;;
18336;SDS011;9294;51.106;7.028;2022-08-04T10:05:32;3.50;;;3.35;;
18336;SDS011;9294;51.106;7.028;2022-08-04T10:08:22;3.47;;;3.28;;
18336;SDS011;9294;51.106;7.028;2022-08-04T10:11:08;3.75;;;3.58;;
18336;SDS011;9294;51.106;7.028;2022-08-04T10:13:46;3.10;;;3.00;;
18336;SDS011;9294;51.106;7.028;2022-08-04T10:16:23;3.53;;;3.22;;
18336;SDS011;9294;51.106;7.028;2022-08-04T10:19:01;3.60;;;3.30;;
18336;SDS011;9294;51.106;7.028;2022-08-04T10:21:37;4.18;;;3.95;;
18336;SDS011;9294;51.106;7.028;2022-08-04T10:24:10;3.65;;;3.45;;
18336;SDS011;9294;51.106;7.028;2022-08-04T10:26:44;3.50;;;3.25;;
18336;SDS011;9294;51.106;7.028;2022-08-04T10:29:15;3.10;;;2.90;;
18336;SDS011;9294;51.106;7.028;2022-08-04T10:31:45;3.60;;;3.47;;
18336;SDS011;9294;51.106;7.028;2022-08-04T10:34:23;3.72;;;3.53;;
18336;SDS011;9294;51.106;7.028;2022-08-04T10:36:53;6.95;;;3.35;;
18336;SDS011;9294;51.106;7.028;2022-08-04T10:39:24;3.67;;;3.38;;
18336;SDS011;9294;51.106;7.028;2022-08-04T10:41:59;9.50;;;3.80;;
18336;SDS011;9294;51.106;7.028;2022-08-04T10:44:37;3.47;;;3.28;;
18336;SDS011;9294;51.106;7.028;2022-08-04T10:47:15;3.33;;;3.13;;
18336;SDS011;9294;51.106;7.028;2022-08-04T10:49:44;3.70;;;3.40;;
18336;SDS011;9294;51.106;7.028;2022-08-04T10:52:16;3.78;;;3.47;;
18336;SDS011;9294;51.106;7.028;2022-08-04T10:54:45;3.75;;;3.55;;
18336;SDS011;9294;51.106;7.028;2022-08-04T10:57:20;3.83;;;3.45;;
18336;SDS011;9294;51.106;7.028;2022-08-04T10:59:55;3.28;;;3.08;;
18336;SDS011;9294;51.106;7.028;2022-08-04T11:02:29;3.55;;;3.38;;
18336;SDS011;9294;51.106;7.028;2022-08-04T11:05:09;3.80;;;3.40;;
18336;SDS011;9294;51.106;7.028;2022-08-04T11:07:43;3.75;;;3.55;;
18336;SDS011;9294;51.106;7.028;2022-08-04T11:10:12;3.88;;;3.63;;
18336;SDS011;9294;51.106;7.028;2022-08-04T11:12:43;3.63;;;3.33;;
18336;SDS011;9294;51.106;7.028;2022-08-04T11:15:15;3.90;;;3.55;;
18336;SDS011;9294;51.106;7.028;2022-08-04T11:17:48;3.88;;;3.60;;
18336;SDS011;9294;51.106;7.028;2022-08-04T11:20:19;3.67;;;3.50;;
18336;SDS011;9294;51.106;7.028;2022-08-04T11:22:54;3.00;;;2.90;;
18336;SDS011;9294;51.106;7.028;2022-08-04T11:25:30;3.30;;;3.20;;
18336;SDS011;9294;51.106;7.028;2022-08-04T11:28:03;4.68;;;4.28;;
18336;SDS011;9294;51.106;7.028;2022-08-04T11:30:39;4.28;;;3.17;;
18336;SDS011;9294;51.106;7.028;2022-08-04T11:33:13;3.60;;;3.30;;
18336;SDS011;9294;51.106;7.028;2022-08-04T11:35:49;3.28;;;3.08;;
18336;SDS011;9294;51.106;7.028;2022-08-04T11:38:24;3.95;;;3.65;;
18336;SDS011;9294;51.106;7.028;2022-08-04T11:40:55;3.85;;;3.45;;
18336;SDS011;9294;51.106;7.028;2022-08-04T11:43:25;3.60;;;3.40;;
18336;SDS011;9294;51.106;7.028;2022-08-04T11:45:59;3.58;;;3.38;;
18336;SDS011;9294;51.106;7.028;2022-08-04T11:48:32;3.08;;;2.97;;
18336;SDS011;9294;51.106;7.028;2022-08-04T11:51:02;3.28;;;3.05;;
18336;SDS011;9294;51.106;7.028;2022-08-04T11:53:30;3.15;;;3.05;;
18336;SDS011;9294;51.106;7.028;2022-08-04T11:56:01;3.22;;;3.08;;
18336;SDS011;9294;51.106;7.028;2022-08-04T11:58:31;3.22;;;3.13;;
18336;SDS011;9294;51.106;7.028;2022-08-04T12:01:01;3.92;;;3.72;;
18336;SDS011;9294;51.106;7.028;2022-08-04T12:03:35;3.55;;;3.33;;
18336;SDS011;9294;51.106;7.028;2022-08-04T12:06:12;3.50;;;3.20;;
18336;SDS011;9294;51.106;7.028;2022-08-04T12:11:34;3.42;;;3.13;;
18336;SDS011;9294;51.106;7.028;2022-08-04T12:14:12;6.32;;;3.40;;
18336;SDS011;9294;51.106;7.028;2022-08-04T12:16:47;3.60;;;3.38;;
18336;SDS011;9294;51.106;7.028;2022-08-04T12:19:22;3.40;;;3.10;;
18336;SDS011;9294;51.106;7.028;2022-08-04T12:21:57;3.25;;;2.95;;
18336;SDS011;9294;51.106;7.028;2022-08-04T12:24:26;3.45;;;3.25;;
18336;SDS011;9294;51.106;7.028;2022-08-04T12:26:55;4.90;;;3.30;;
18336;SDS011;9294;51.106;7.028;2022-08-04T12:29:26;3.80;;;3.45;;
18336;SDS011;9294;51.106;7.028;2022-08-04T12:31:59;3.20;;;3.10;;
18336;SDS011;9294;51.106;7.028;2022-08-04T12:34:31;3.95;;;3.47;;
18336;SDS011;9294;51.106;7.028;2022-08-04T12:37:06;3.38;;;3.17;;
18336;SDS011;9294;51.106;7.028;2022-08-04T12:39:40;3.17;;;2.80;;
18336;SDS011;9294;51.106;7.028;2022-08-04T12:42:12;3.70;;;3.50;;
18336;SDS011;9294;51.106;7.028;2022-08-04T12:44:42;3.90;;;3.60;;
18336;SDS011;9294;51.106;7.028;2022-08-04T12:47:13;3.88;;;3.67;;
18336;SDS011;9294;51.106;7.028;2022-08-04T12:49:43;6.88;;;3.85;;
18336;SDS011;9294;51.106;7.028;2022-08-04T12:52:10;3.65;;;3.45;;
18336;SDS011;9294;51.106;7.028;2022-08-04T12:54:41;4.07;;;3.30;;
18336;SDS011;9294;51.106;7.028;2022-08-04T12:57:11;3.72;;;3.42;;
18336;SDS011;9294;51.106;7.028;2022-08-04T12:59:39;4.35;;;3.47;;
18336;SDS011;9294;51.106;7.028;2022-08-04T13:02:10;4.05;;;3.72;;
18336;SDS011;9294;51.106;7.028;2022-08-04T13:04:41;3.67;;;3.40;;
18336;SDS011;9294;51.106;7.028;2022-08-04T13:07:09;3.15;;;3.05;;
18336;SDS011;9294;51.106;7.028;2022-08-04T13:09:37;4.18;;;3.67;;
18336;SDS011;9294;51.106;7.028;2022-08-04T13:12:04;3.30;;;3.00;;
18336;SDS011;9294;51.106;7.028;2022-08-04T13:14:39;3.65;;;3.35;;
18336;SDS011;9294;51.106;7.028;2022-08-04T13:17:09;6.25;;;3.83;;
18336;SDS011;9294;51.106;7.028;2022-08-04T13:19:36;3.20;;;3.00;;
18336;SDS011;9294;51.106;7.028;2022-08-04T13:22:04;3.50;;;3.25;;
18336;SDS011;9294;51.106;7.028;2022-08-04T13:24:31;4.43;;;3.53;;
18336;SDS011;9294;51.106;7.028;2022-08-04T13:27:01;3.55;;;3.25;;
18336;SDS011;9294;51.106;7.028;2022-08-04T13:29:33;3.85;;;3.55;;
18336;SDS011;9294;51.106;7.028;2022-08-04T13:32:02;3.33;;;3.05;;
18336;SDS011;9294;51.106;7.028;2022-08-04T13:34:32;3.72;;;3.45;;
18336;SDS011;9294;51.106;7.028;2022-08-04T13:37:00;4.55;;;3.72;;
18336;SDS011;9294;51.106;7.028;2022-08-04T13:39:28;4.25;;;3.85;;
18336;SDS011;9294;51.106;7.028;2022-08-04T13:41:57;3.13;;;3.03;;
18336;SDS011;9294;51.106;7.028;2022-08-04T13:44:27;3.45;;;3.28;;
18336;SDS011;9294;51.106;7.028;2022-08-04T13:46:56;4.20;;;3.47;;
18336;SDS011;9294;51.106;7.028;2022-08-04T13:49:26;3.28;;;3.00;;
18336;SDS011;9294;51.106;7.028;2022-08-04T13:51:55;3.10;;;2.90;;
18336;SDS011;9294;51.106;7.028;2022-08-04T13:54:24;3.13;;;2.83;;
18336;SDS011;9294;51.106;7.028;2022-08-04T13:56:52;3.55;;;3.25;;
18336;SDS011;9294;51.106;7.028;2022-08-04T13:59:24;3.22;;;2.85;;
18336;SDS011;9294;51.106;7.028;2022-08-04T14:01:57;3.58;;;3.28;;
18336;SDS011;9294;51.106;7.028;2022-08-04T14:04:26;3.20;;;3.10;;
18336;SDS011;9294;51.106;7.028;2022-08-04T14:07:00;3.92;;;3.63;;
18336;SDS011;9294;51.106;7.028;2022-08-04T14:09:32;3.53;;;3.22;;
18336;SDS011;9294;51.106;7.028;2022-08-04T14:12:06;3.75;;;3.55;;
18336;SDS011;9294;51.106;7.028;2022-08-04T14:14:35;7.60;;;3.88;;
18336;SDS011;9294;51.106;7.028;2022-08-04T14:17:10;3.92;;;3.63;;
18336;SDS011;9294;51.106;7.028;2022-08-04T14:22:31;3.92;;;3.22;;
18336;SDS011;9294;51.106;7.028;2022-08-04T14:25:00;3.42;;;3.20;;
18336;SDS011;9294;51.106;7.028;2022-08-04T14:27:30;3.80;;;3.60;;
18336;SDS011;9294;51.106;7.028;2022-08-04T14:30:07;5.50;;;3.60;;
18336;SDS011;9294;51.106;7.028;2022-08-04T14:32:34;4.13;;;3.40;;
18336;SDS011;9294;51.106;7.028;2022-08-04T14:35:20;3.50;;;3.30;;
18336;SDS011;9294;51.106;7.028;2022-08-04T14:37:55;3.60;;;3.40;;
18336;SDS011;9294;51.106;7.028;2022-08-04T14:40:25;3.92;;;3.63;;
18336;SDS011;9294;51.106;7.028;2022-08-04T14:42:54;16.25;;;5.15;;
18336;SDS011;9294;51.106;7.028;2022-08-04T14:45:28;5.90;;;3.50;;
18336;SDS011;9294;51.106;7.028;2022-08-04T14:47:56;5.68;;;3.70;;
18336;SDS011;9294;51.106;7.028;2022-08-04T14:53:11;3.72;;;3.42;;
18336;SDS011;9294;51.106;7.028;2022-08-04T14:55:41;4.63;;;4.20;;
18336;SDS011;9294;51.106;7.028;2022-08-04T14:58:15;5.03;;;3.40;;
18336;SDS011;9294;51.106;7.028;2022-08-04T15:00:43;5.13;;;3.20;;
18336;SDS011;9294;51.106;7.028;2022-08-04T15:03:11;3.60;;;3.33;;
18336;SDS011;9294;51.106;7.028;2022-08-04T15:05:39;7.70;;;3.53;;
18336;SDS011;9294;51.106;7.028;2022-08-04T15:08:07;3.72;;;3.42;;
18336;SDS011;9294;51.106;7.028;2022-08-04T15:10:35;3.65;;;3.35;;
18336;SDS011;9294;51.106;7.028;2022-08-04T15:13:02;3.58;;;3.28;;
18336;SDS011;9294;51.106;7.028;2022-08-04T15:15:29;5.32;;;3.25;;
18336;SDS011;9294;51.106;7.028;2022-08-04T15:17:56;4.28;;;3.55;;
18336;SDS011;9294;51.106;7.028;2022-08-04T15:20:24;6.07;;;3.25;;
18336;SDS011;9294;51.106;7.028;2022-08-04T15:22:51;3.30;;;3.10;;
18336;SDS011;9294;51.106;7.028;2022-08-04T15:25:18;3.80;;;3.60;;
18336;SDS011;9294;51.106;7.028;2022-08-04T15:27:47;3.35;;;3.03;;
18336;SDS011;9294;51.106;7.028;2022-08-04T15:30:16;3.35;;;3.15;;
18336;SDS011;9294;51.106;7.028;2022-08-04T15:32:46;3.80;;;3.60;;
18336;SDS011;9294;51.106;7.028;2022-08-04T15:35:16;3.28;;;3.00;;
18336;SDS011;9294;51.106;7.028;2022-08-04T15:37:46;6.20;;;3.80;;
18336;SDS011;9294;51.106;7.028;2022-08-04T15:40:26;4.05;;;3.13;;
18336;SDS011;9294;51.106;7.028;2022-08-04T15:43:03;3.40;;;2.85;;
18336;SDS011;9294;51.106;7.028;2022-08-04T15:45:46;3.25;;;3.08;;
18336;SDS011;9294;51.106;7.028;2022-08-04T15:48:21;3.55;;;2.85;;
18336;SDS011;9294;51.106;7.028;2022-08-04T15:50:58;3.33;;;3.03;;
18336;SDS011;9294;51.106;7.028;2022-08-04T15:53:28;3.42;;;3.22;;
18336;SDS011;9294;51.106;7.028;2022-08-04T15:55:55;3.78;;;3.40;;
18336;SDS011;9294;51.106;7.028;2022-08-04T15:58:24;3.83;;;3.47;;
18336;SDS011;9294;51.106;7.028;2022-08-04T16:03:44;5.15;;;3.10;;
18336;SDS011;9294;51.106;7.028;2022-08-04T16:09:08;3.33;;;3.13;;
18336;SDS011;9294;51.106;7.028;2022-08-04T16:11:46;3.75;;;3.33;;
18336;SDS011;9294;51.106;7.028;2022-08-04T16:14:14;5.05;;;3.50;;
18336;SDS011;9294;51.106;7.028;2022-08-04T16:16:45;4.38;;;3.08;;
18336;SDS011;9294;51.106;7.028;2022-08-04T16:19:18;3.83;;;3.28;;
18336;SDS011;9294;51.106;7.028;2022-08-04T16:21:51;3.10;;;2.97;;
18336;SDS011;9294;51.106;7.028;2022-08-04T16:24:19;3.47;;;3.22;;
18336;SDS011;9294;51.106;7.028;2022-08-04T16:26:47;3.38;;;3.17;;
18336;SDS011;9294;51.106;7.028;2022-08-04T16:29:25;3.47;;;3.28;;
18336;SDS011;9294;51.106;7.028;2022-08-04T16:32:13;3.47;;;3.28;;
18336;SDS011;9294;51.106;7.028;2022-08-04T16:34:46;3.70;;;3.40;;
18336;SDS011;9294;51.106;7.028;2022-08-04T16:37:13;3.38;;;3.10;;
18336;SDS011;9294;51.106;7.028;2022-08-04T16:39:42;3.28;;;3.08;;
18336;SDS011;9294;51.106;7.028;2022-08-04T16:42:28;3.50;;;3.28;;